sensor_id;sensor_type;location;lat;lon;timestamp;P1;durP1;ratioP1;P2;durP2;ratioP2
10389;SDS011;5241;47.830;12.972;2023-12-20T00:02:13;3.20;;;2.10;;
10389;SDS011;5241;47.830;12.972;2023-12-20T00:04:39;2.77;;;1.73;;
10389;SDS011;5241;47.830;12.972;2023-12-20T00:07:04;2.00;;;1.80;;
10389;SDS011;5241;47.830;12.972;2023-12-20T00:09:30;2.40;;;1.77;;
10389;SDS011;5241;47.830;12.972;2023-12-20T00:11:55;3.13;;;2.10;;
10389;SDS011;5241;47.830;12.972;2023-12-20T00:14:21;3.60;;;1.73;;
10389;SDS011;5241;47.830;12.972;2023-12-20T00:16:46;3.40;;;2.37;;
10389;SDS011;5241;47.830;12.972;2023-12-20T00:19:12;3.50;;;2.13;;
10389;SDS011;5241;47.830;12.972;2023-12-20T00:21:37;4.07;;;2.20;;
10389;SDS011;5241;47.830;12.972;2023-12-20T00:24:03;2.90;;;2.00;;
10389;SDS011;5241;47.830;12.972;2023-12-20T00:26:29;3.20;;;1.87;;
10389;SDS011;5241;47.830;12.972;2023-12-20T00:28:55;3.67;;;2.33;;
10389;SDS011;5241;47.830;12.972;2023-12-20T00:31:20;3.13;;;1.90;;
10389;SDS011;5241;47.830;12.972;2023-12-20T00:33:46;3.70;;;1.93;;
10389;SDS011;5241;47.830;12.972;2023-12-20T00:36:12;2.93;;;2.33;;
10389;SDS011;5241;47.830;12.972;2023-12-20T00:38:37;5.30;;;2.20;;
10389;SDS011;5241;47.830;12.972;2023-12-20T00:41:03;4.40;;;2.47;;
10389;SDS011;5241;47.830;12.972;2023-12-20T00:43:28;4.63;;;2.07;;
10389;SDS011;5241;47.830;12.972;2023-12-20T00:45:54;3.07;;;2.27;;
10389;SDS011;5241;47.830;12.972;2023-12-20T00:48:20;2.30;;;1.80;;
10389;SDS011;5241;47.830;12.972;2023-12-20T00:50:46;5.17;;;2.73;;
10389;SDS011;5241;47.830;12.972;2023-12-20T00:53:11;4.03;;;2.33;;
10389;SDS011;5241;47.830;12.972;2023-12-20T00:55:37;4.00;;;1.97;;
10389;SDS011;5241;47.830;12.972;2023-12-20T00:58:02;3.20;;;2.20;;
10389;SDS011;5241;47.830;12.972;2023-12-20T01:00:28;3.20;;;1.90;;
10389;SDS011;5241;47.830;12.972;2023-12-20T01:02:54;2.60;;;2.03;;
10389;SDS011;5241;47.830;12.972;2023-12-20T01:05:19;3.80;;;1.80;;
10389;SDS011;5241;47.830;12.972;2023-12-20T01:07:47;2.90;;;1.50;;
10389;SDS011;5241;47.830;12.972;2023-12-20T01:10:13;3.80;;;2.23;;
10389;SDS011;5241;47.830;12.972;2023-12-20T01:12:39;4.27;;;2.20;;
10389;SDS011;5241;47.830;12.972;2023-12-20T01:15:05;3.27;;;1.97;;
10389;SDS011;5241;47.830;12.972;2023-12-20T01:17:30;2.53;;;2.03;;
10389;SDS011;5241;47.830;12.972;2023-12-20T01:19:56;3.20;;;1.77;;
10389;SDS011;5241;47.830;12.972;2023-12-20T01:22:21;2.20;;;1.90;;
10389;SDS011;5241;47.830;12.972;2023-12-20T01:24:48;1.87;;;1.53;;
10389;SDS011;5241;47.830;12.972;2023-12-20T01:27:13;5.17;;;2.00;;
10389;SDS011;5241;47.830;12.972;2023-12-20T01:29:39;5.93;;;1.87;;
10389;SDS011;5241;47.830;12.972;2023-12-20T01:32:04;2.57;;;1.80;;
10389;SDS011;5241;47.830;12.972;2023-12-20T01:34:30;2.73;;;1.80;;
10389;SDS011;5241;47.830;12.972;2023-12-20T01:36:55;3.17;;;1.87;;
10389;SDS011;5241;47.830;12.972;2023-12-20T01:39:21;3.10;;;1.70;;
10389;SDS011;5241;47.830;12.972;2023-12-20T01:41:46;2.30;;;1.50;;
10389;SDS011;5241;47.830;12.972;2023-12-20T01:44:12;1.57;;;1.47;;
10389;SDS011;5241;47.830;12.972;2023-12-20T01:46:37;2.73;;;1.90;;
10389;SDS011;5241;47.830;12.972;2023-12-20T01:49:03;4.07;;;2.00;;
10389;SDS011;5241;47.830;12.972;2023-12-20T01:51:29;4.17;;;1.73;;
10389;SDS011;5241;47.830;12.972;2023-12-20T01:53:55;2.10;;;1.67;;
10389;SDS011;5241;47.830;12.972;2023-12-20T01:56:22;3.77;;;1.60;;
10389;SDS011;5241;47.830;12.972;2023-12-20T01:58:49;1.90;;;1.43;;
10389;SDS011;5241;47.830;12.972;2023-12-20T02:01:14;3.17;;;1.90;;
10389;SDS011;5241;47.830;12.972;2023-12-20T02:03:41;2.67;;;2.17;;
10389;SDS011;5241;47.830;12.972;2023-12-20T02:06:07;1.87;;;1.40;;
10389;SDS011;5241;47.830;12.972;2023-12-20T02:08:34;2.40;;;1.43;;
10389;SDS011;5241;47.830;12.972;2023-12-20T02:10:59;2.20;;;1.57;;
10389;SDS011;5241;47.830;12.972;2023-12-20T02:13:25;2.80;;;1.40;;
10389;SDS011;5241;47.830;12.972;2023-12-20T02:15:51;1.70;;;1.40;;
10389;SDS011;5241;47.830;12.972;2023-12-20T02:18:17;1.63;;;1.37;;
10389;SDS011;5241;47.830;12.972;2023-12-20T02:20:43;2.73;;;1.30;;
10389;SDS011;5241;47.830;12.972;2023-12-20T02:23:09;2.43;;;1.30;;
10389;SDS011;5241;47.830;12.972;2023-12-20T02:25:34;1.53;;;1.13;;
10389;SDS011;5241;47.830;12.972;2023-12-20T02:28:00;2.33;;;1.60;;
10389;SDS011;5241;47.830;12.972;2023-12-20T02:30:26;1.70;;;1.40;;
10389;SDS011;5241;47.830;12.972;2023-12-20T02:32:51;1.87;;;1.43;;
10389;SDS011;5241;47.830;12.972;2023-12-20T02:35:18;2.13;;;1.33;;
10389;SDS011;5241;47.830;12.972;2023-12-20T02:37:43;5.70;;;1.50;;
10389;SDS011;5241;47.830;12.972;2023-12-20T02:40:09;1.93;;;1.37;;
10389;SDS011;5241;47.830;12.972;2023-12-20T02:42:35;2.23;;;1.30;;
10389;SDS011;5241;47.830;12.972;2023-12-20T02:45:01;1.87;;;1.20;;
10389;SDS011;5241;47.830;12.972;2023-12-20T02:47:26;2.23;;;1.57;;
10389;SDS011;5241;47.830;12.972;2023-12-20T02:49:52;3.73;;;1.67;;
10389;SDS011;5241;47.830;12.972;2023-12-20T02:52:18;2.17;;;1.47;;
10389;SDS011;5241;47.830;12.972;2023-12-20T02:54:44;2.67;;;1.60;;
10389;SDS011;5241;47.830;12.972;2023-12-20T02:57:09;1.50;;;1.20;;
10389;SDS011;5241;47.830;12.972;2023-12-20T02:59:35;1.43;;;1.33;;
10389;SDS011;5241;47.830;12.972;2023-12-20T03:02:00;1.27;;;1.00;;
10389;SDS011;5241;47.830;12.972;2023-12-20T03:04:26;2.13;;;1.13;;
10389;SDS011;5241;47.830;12.972;2023-12-20T03:06:51;1.03;;;0.93;;
10389;SDS011;5241;47.830;12.972;2023-12-20T03:09:17;1.73;;;1.20;;
10389;SDS011;5241;47.830;12.972;2023-12-20T03:11:42;1.47;;;1.10;;
10389;SDS011;5241;47.830;12.972;2023-12-20T03:14:08;2.20;;;1.23;;
10389;SDS011;5241;47.830;12.972;2023-12-20T03:16:33;2.27;;;1.50;;
10389;SDS011;5241;47.830;12.972;2023-12-20T03:18:59;2.23;;;1.30;;
10389;SDS011;5241;47.830;12.972;2023-12-20T03:21:24;1.40;;;1.20;;
10389;SDS011;5241;47.830;12.972;2023-12-20T03:23:50;3.30;;;1.63;;
10389;SDS011;5241;47.830;12.972;2023-12-20T03:26:16;2.33;;;1.30;;
10389;SDS011;5241;47.830;12.972;2023-12-20T03:28:41;1.57;;;1.30;;
10389;SDS011;5241;47.830;12.972;2023-12-20T03:31:07;1.33;;;1.17;;
10389;SDS011;5241;47.830;12.972;2023-12-20T03:33:34;2.73;;;1.70;;
10389;SDS011;5241;47.830;12.972;2023-12-20T03:35:59;1.80;;;1.53;;
10389;SDS011;5241;47.830;12.972;2023-12-20T03:38:25;5.43;;;1.90;;
10389;SDS011;5241;47.830;12.972;2023-12-20T03:40:50;1.37;;;1.27;;
10389;SDS011;5241;47.830;12.972;2023-12-20T03:43:16;2.03;;;1.53;;
10389;SDS011;5241;47.830;12.972;2023-12-20T03:45:42;2.30;;;1.70;;
10389;SDS011;5241;47.830;12.972;2023-12-20T03:48:08;2.23;;;1.50;;
10389;SDS011;5241;47.830;12.972;2023-12-20T03:50:34;1.97;;;1.37;;
10389;SDS011;5241;47.830;12.972;2023-12-20T03:53:00;2.37;;;1.50;;
10389;SDS011;5241;47.830;12.972;2023-12-20T03:55:25;2.30;;;1.60;;
10389;SDS011;5241;47.830;12.972;2023-12-20T03:57:51;1.73;;;1.40;;
10389;SDS011;5241;47.830;12.972;2023-12-20T04:00:16;1.63;;;1.37;;
10389;SDS011;5241;47.830;12.972;2023-12-20T04:02:42;1.60;;;1.23;;
10389;SDS011;5241;47.830;12.972;2023-12-20T04:05:08;1.90;;;1.50;;
10389;SDS011;5241;47.830;12.972;2023-12-20T04:07:35;1.20;;;1.10;;
10389;SDS011;5241;47.830;12.972;2023-12-20T04:10:01;1.60;;;1.50;;
10389;SDS011;5241;47.830;12.972;2023-12-20T04:12:28;1.77;;;1.30;;
10389;SDS011;5241;47.830;12.972;2023-12-20T04:14:54;2.50;;;1.40;;
10389;SDS011;5241;47.830;12.972;2023-12-20T04:17:19;3.27;;;1.60;;
10389;SDS011;5241;47.830;12.972;2023-12-20T04:19:47;2.57;;;1.50;;
10389;SDS011;5241;47.830;12.972;2023-12-20T04:22:13;4.43;;;1.40;;
10389;SDS011;5241;47.830;12.972;2023-12-20T04:24:38;2.20;;;1.50;;
10389;SDS011;5241;47.830;12.972;2023-12-20T04:27:04;1.93;;;1.30;;
10389;SDS011;5241;47.830;12.972;2023-12-20T04:29:30;1.53;;;1.30;;
10389;SDS011;5241;47.830;12.972;2023-12-20T04:31:55;1.40;;;1.30;;
10389;SDS011;5241;47.830;12.972;2023-12-20T04:34:21;1.37;;;1.27;;
10389;SDS011;5241;47.830;12.972;2023-12-20T04:36:47;2.43;;;1.40;;
10389;SDS011;5241;47.830;12.972;2023-12-20T04:39:13;2.83;;;1.37;;
10389;SDS011;5241;47.830;12.972;2023-12-20T04:41:40;1.40;;;1.30;;
10389;SDS011;5241;47.830;12.972;2023-12-20T04:44:05;6.47;;;1.40;;
10389;SDS011;5241;47.830;12.972;2023-12-20T04:46:31;2.57;;;1.70;;
10389;SDS011;5241;47.830;12.972;2023-12-20T04:48:57;1.93;;;1.47;;
10389;SDS011;5241;47.830;12.972;2023-12-20T04:51:22;4.70;;;1.93;;
10389;SDS011;5241;47.830;12.972;2023-12-20T04:53:48;2.00;;;1.23;;
10389;SDS011;5241;47.830;12.972;2023-12-20T04:56:13;1.73;;;1.33;;
10389;SDS011;5241;47.830;12.972;2023-12-20T04:58:39;2.77;;;1.30;;
10389;SDS011;5241;47.830;12.972;2023-12-20T05:01:08;2.23;;;1.30;;
10389;SDS011;5241;47.830;12.972;2023-12-20T05:03:34;1.70;;;1.60;;
10389;SDS011;5241;47.830;12.972;2023-12-20T05:06:00;2.13;;;1.33;;
10389;SDS011;5241;47.830;12.972;2023-12-20T05:08:25;2.20;;;1.60;;
10389;SDS011;5241;47.830;12.972;2023-12-20T05:10:52;1.50;;;1.40;;
10389;SDS011;5241;47.830;12.972;2023-12-20T05:13:21;1.73;;;1.40;;
10389;SDS011;5241;47.830;12.972;2023-12-20T05:15:47;4.60;;;1.40;;
10389;SDS011;5241;47.830;12.972;2023-12-20T05:18:13;2.23;;;1.50;;
10389;SDS011;5241;47.830;12.972;2023-12-20T05:20:39;1.67;;;1.57;;
10389;SDS011;5241;47.830;12.972;2023-12-20T05:23:05;1.97;;;1.30;;
10389;SDS011;5241;47.830;12.972;2023-12-20T05:25:30;2.13;;;1.73;;
10389;SDS011;5241;47.830;12.972;2023-12-20T05:27:56;1.80;;;1.20;;
10389;SDS011;5241;47.830;12.972;2023-12-20T05:30:22;1.90;;;1.40;;
10389;SDS011;5241;47.830;12.972;2023-12-20T05:32:47;1.97;;;1.20;;
10389;SDS011;5241;47.830;12.972;2023-12-20T05:35:13;2.27;;;1.63;;
10389;SDS011;5241;47.830;12.972;2023-12-20T05:37:40;0.77;;;0.70;;
10389;SDS011;5241;47.830;12.972;2023-12-20T05:40:06;1.00;;;0.90;;
10389;SDS011;5241;47.830;12.972;2023-12-20T05:42:35;1.33;;;0.60;;
10389;SDS011;5241;47.830;12.972;2023-12-20T05:45:01;1.10;;;1.00;;
10389;SDS011;5241;47.830;12.972;2023-12-20T05:47:26;3.20;;;1.03;;
10389;SDS011;5241;47.830;12.972;2023-12-20T05:49:52;0.77;;;0.73;;
10389;SDS011;5241;47.830;12.972;2023-12-20T05:52:17;1.20;;;0.73;;
10389;SDS011;5241;47.830;12.972;2023-12-20T05:54:43;0.70;;;0.53;;
10389;SDS011;5241;47.830;12.972;2023-12-20T05:57:09;0.47;;;0.47;;
10389;SDS011;5241;47.830;12.972;2023-12-20T05:59:34;0.70;;;0.70;;
10389;SDS011;5241;47.830;12.972;2023-12-20T06:01:59;0.73;;;0.60;;
10389;SDS011;5241;47.830;12.972;2023-12-20T06:04:25;1.13;;;0.80;;
10389;SDS011;5241;47.830;12.972;2023-12-20T06:06:50;1.17;;;0.87;;
10389;SDS011;5241;47.830;12.972;2023-12-20T06:09:16;1.77;;;0.90;;
10389;SDS011;5241;47.830;12.972;2023-12-20T06:11:42;0.83;;;0.60;;
10389;SDS011;5241;47.830;12.972;2023-12-20T06:14:07;1.60;;;0.80;;
10389;SDS011;5241;47.830;12.972;2023-12-20T06:16:33;1.07;;;0.87;;
10389;SDS011;5241;47.830;12.972;2023-12-20T06:18:58;1.20;;;0.90;;
10389;SDS011;5241;47.830;12.972;2023-12-20T06:21:24;0.67;;;0.67;;
10389;SDS011;5241;47.830;12.972;2023-12-20T06:23:49;0.50;;;0.50;;
10389;SDS011;5241;47.830;12.972;2023-12-20T06:26:15;0.40;;;0.30;;
10389;SDS011;5241;47.830;12.972;2023-12-20T06:28:40;2.03;;;0.80;;
10389;SDS011;5241;47.830;12.972;2023-12-20T06:31:06;0.43;;;0.43;;
10389;SDS011;5241;47.830;12.972;2023-12-20T06:33:32;0.40;;;0.37;;
10389;SDS011;5241;47.830;12.972;2023-12-20T06:35:57;0.50;;;0.50;;
10389;SDS011;5241;47.830;12.972;2023-12-20T06:38:23;0.70;;;0.70;;
10389;SDS011;5241;47.830;12.972;2023-12-20T06:40:48;0.63;;;0.50;;
10389;SDS011;5241;47.830;12.972;2023-12-20T06:43:14;0.87;;;0.80;;
10389;SDS011;5241;47.830;12.972;2023-12-20T06:45:39;0.80;;;0.80;;
10389;SDS011;5241;47.830;12.972;2023-12-20T06:48:05;0.93;;;0.87;;
10389;SDS011;5241;47.830;12.972;2023-12-20T06:50:31;0.63;;;0.63;;
10389;SDS011;5241;47.830;12.972;2023-12-20T06:52:57;1.27;;;0.60;;
10389;SDS011;5241;47.830;12.972;2023-12-20T06:55:22;0.70;;;0.70;;
10389;SDS011;5241;47.830;12.972;2023-12-20T06:57:48;1.33;;;0.70;;
10389;SDS011;5241;47.830;12.972;2023-12-20T07:00:14;0.57;;;0.57;;
10389;SDS011;5241;47.830;12.972;2023-12-20T07:02:40;0.60;;;0.57;;
10389;SDS011;5241;47.830;12.972;2023-12-20T07:05:05;0.70;;;0.70;;
10389;SDS011;5241;47.830;12.972;2023-12-20T07:07:31;2.10;;;0.87;;
10389;SDS011;5241;47.830;12.972;2023-12-20T07:09:57;1.00;;;0.80;;
10389;SDS011;5241;47.830;12.972;2023-12-20T07:12:22;0.97;;;0.87;;
10389;SDS011;5241;47.830;12.972;2023-12-20T07:14:48;1.10;;;0.90;;
10389;SDS011;5241;47.830;12.972;2023-12-20T07:17:13;0.70;;;0.63;;
10389;SDS011;5241;47.830;12.972;2023-12-20T07:19:40;1.00;;;0.80;;
10389;SDS011;5241;47.830;12.972;2023-12-20T07:22:06;1.50;;;1.10;;
10389;SDS011;5241;47.830;12.972;2023-12-20T07:24:32;0.80;;;0.70;;
10389;SDS011;5241;47.830;12.972;2023-12-20T07:27:01;1.07;;;0.67;;
10389;SDS011;5241;47.830;12.972;2023-12-20T07:29:27;1.23;;;0.93;;
10389;SDS011;5241;47.830;12.972;2023-12-20T07:31:52;0.97;;;0.87;;
10389;SDS011;5241;47.830;12.972;2023-12-20T07:34:19;1.03;;;0.80;;
10389;SDS011;5241;47.830;12.972;2023-12-20T07:36:45;1.83;;;0.97;;
10389;SDS011;5241;47.830;12.972;2023-12-20T07:39:11;1.40;;;0.97;;
10389;SDS011;5241;47.830;12.972;2023-12-20T07:41:36;2.93;;;1.23;;
10389;SDS011;5241;47.830;12.972;2023-12-20T07:44:02;0.80;;;0.80;;
10389;SDS011;5241;47.830;12.972;2023-12-20T07:46:29;1.63;;;1.10;;
10389;SDS011;5241;47.830;12.972;2023-12-20T07:48:54;1.20;;;0.80;;
10389;SDS011;5241;47.830;12.972;2023-12-20T07:51:20;1.60;;;1.20;;
10389;SDS011;5241;47.830;12.972;2023-12-20T07:53:46;3.17;;;1.53;;
10389;SDS011;5241;47.830;12.972;2023-12-20T07:56:15;2.37;;;1.43;;
10389;SDS011;5241;47.830;12.972;2023-12-20T07:58:44;1.90;;;1.20;;
10389;SDS011;5241;47.830;12.972;2023-12-20T08:01:10;1.73;;;1.30;;
10389;SDS011;5241;47.830;12.972;2023-12-20T08:03:37;2.10;;;1.00;;
10389;SDS011;5241;47.830;12.972;2023-12-20T08:06:03;1.60;;;1.20;;
10389;SDS011;5241;47.830;12.972;2023-12-20T08:08:28;3.73;;;1.40;;
10389;SDS011;5241;47.830;12.972;2023-12-20T08:10:54;1.30;;;1.20;;
10389;SDS011;5241;47.830;12.972;2023-12-20T08:13:20;1.50;;;1.13;;
10389;SDS011;5241;47.830;12.972;2023-12-20T08:15:50;0.90;;;0.80;;
10389;SDS011;5241;47.830;12.972;2023-12-20T08:18:15;1.23;;;0.70;;
10389;SDS011;5241;47.830;12.972;2023-12-20T08:20:41;1.13;;;0.87;;
10389;SDS011;5241;47.830;12.972;2023-12-20T08:23:06;0.93;;;0.70;;
10389;SDS011;5241;47.830;12.972;2023-12-20T08:25:32;0.87;;;0.80;;
10389;SDS011;5241;47.830;12.972;2023-12-20T08:27:57;0.73;;;0.70;;
10389;SDS011;5241;47.830;12.972;2023-12-20T08:30:23;1.13;;;0.73;;
10389;SDS011;5241;47.830;12.972;2023-12-20T08:32:48;0.73;;;0.57;;
10389;SDS011;5241;47.830;12.972;2023-12-20T08:35:14;1.03;;;0.83;;
10389;SDS011;5241;47.830;12.972;2023-12-20T08:37:39;0.53;;;0.53;;
10389;SDS011;5241;47.830;12.972;2023-12-20T08:40:05;1.00;;;0.83;;
10389;SDS011;5241;47.830;12.972;2023-12-20T08:42:31;0.67;;;0.60;;
10389;SDS011;5241;47.830;12.972;2023-12-20T08:44:57;0.60;;;0.60;;
10389;SDS011;5241;47.830;12.972;2023-12-20T08:47:25;0.77;;;0.70;;
10389;SDS011;5241;47.830;12.972;2023-12-20T08:49:52;1.00;;;0.90;;
10389;SDS011;5241;47.830;12.972;2023-12-20T08:52:22;0.80;;;0.63;;
10389;SDS011;5241;47.830;12.972;2023-12-20T08:54:48;0.77;;;0.70;;
10389;SDS011;5241;47.830;12.972;2023-12-20T08:57:19;0.70;;;0.70;;
10389;SDS011;5241;47.830;12.972;2023-12-20T08:59:46;0.43;;;0.43;;
10389;SDS011;5241;47.830;12.972;2023-12-20T09:02:12;0.70;;;0.50;;
10389;SDS011;5241;47.830;12.972;2023-12-20T09:04:39;2.10;;;0.80;;
10389;SDS011;5241;47.830;12.972;2023-12-20T09:07:04;1.27;;;0.90;;
10389;SDS011;5241;47.830;12.972;2023-12-20T09:09:30;0.60;;;0.60;;
10389;SDS011;5241;47.830;12.972;2023-12-20T09:11:57;0.37;;;0.37;;
10389;SDS011;5241;47.830;12.972;2023-12-20T09:14:23;0.73;;;0.53;;
10389;SDS011;5241;47.830;12.972;2023-12-20T09:16:48;0.63;;;0.63;;
10389;SDS011;5241;47.830;12.972;2023-12-20T09:19:16;0.60;;;0.60;;
10389;SDS011;5241;47.830;12.972;2023-12-20T09:21:42;0.60;;;0.60;;
10389;SDS011;5241;47.830;12.972;2023-12-20T09:24:07;0.30;;;0.30;;
10389;SDS011;5241;47.830;12.972;2023-12-20T09:26:33;0.53;;;0.50;;
10389;SDS011;5241;47.830;12.972;2023-12-20T09:28:59;0.53;;;0.53;;
10389;SDS011;5241;47.830;12.972;2023-12-20T09:31:25;0.70;;;0.70;;
10389;SDS011;5241;47.830;12.972;2023-12-20T09:33:51;1.60;;;0.63;;
10389;SDS011;5241;47.830;12.972;2023-12-20T09:36:16;0.67;;;0.57;;
10389;SDS011;5241;47.830;12.972;2023-12-20T09:38:42;4.33;;;2.53;;
10389;SDS011;5241;47.830;12.972;2023-12-20T09:41:07;2.10;;;1.70;;
10389;SDS011;5241;47.830;12.972;2023-12-20T09:43:33;10.27;;;5.40;;
10389;SDS011;5241;47.830;12.972;2023-12-20T09:46:02;1.97;;;1.10;;
10389;SDS011;5241;47.830;12.972;2023-12-20T09:48:31;1.10;;;0.90;;
10389;SDS011;5241;47.830;12.972;2023-12-20T09:50:57;0.60;;;0.50;;
10389;SDS011;5241;47.830;12.972;2023-12-20T09:53:23;1.10;;;0.70;;
10389;SDS011;5241;47.830;12.972;2023-12-20T09:55:54;1.37;;;0.80;;
10389;SDS011;5241;47.830;12.972;2023-12-20T09:58:25;0.70;;;0.60;;
10389;SDS011;5241;47.830;12.972;2023-12-20T10:00:50;0.90;;;0.53;;
10389;SDS011;5241;47.830;12.972;2023-12-20T10:03:17;1.70;;;0.70;;
10389;SDS011;5241;47.830;12.972;2023-12-20T10:05:48;0.67;;;0.53;;
10389;SDS011;5241;47.830;12.972;2023-12-20T10:08:18;2.60;;;0.40;;
10389;SDS011;5241;47.830;12.972;2023-12-20T10:10:46;2.13;;;1.73;;
10389;SDS011;5241;47.830;12.972;2023-12-20T10:13:11;1.27;;;1.17;;
10389;SDS011;5241;47.830;12.972;2023-12-20T10:15:38;0.83;;;0.77;;
10389;SDS011;5241;47.830;12.972;2023-12-20T10:18:04;0.80;;;0.80;;
10389;SDS011;5241;47.830;12.972;2023-12-20T10:20:30;2.33;;;1.80;;
10389;SDS011;5241;47.830;12.972;2023-12-20T10:22:57;1.40;;;1.30;;
10389;SDS011;5241;47.830;12.972;2023-12-20T10:25:23;2.40;;;1.30;;
10389;SDS011;5241;47.830;12.972;2023-12-20T10:27:50;0.60;;;0.60;;
10389;SDS011;5241;47.830;12.972;2023-12-20T10:30:33;1.53;;;0.90;;
10389;SDS011;5241;47.830;12.972;2023-12-20T10:32:58;3.40;;;2.50;;
10389;SDS011;5241;47.830;12.972;2023-12-20T10:35:24;5.27;;;2.90;;
10389;SDS011;5241;47.830;12.972;2023-12-20T10:37:51;1.00;;;0.90;;
10389;SDS011;5241;47.830;12.972;2023-12-20T10:40:21;1.10;;;1.00;;
10389;SDS011;5241;47.830;12.972;2023-12-20T10:42:46;0.50;;;0.50;;
10389;SDS011;5241;47.830;12.972;2023-12-20T10:45:13;0.30;;;0.30;;
10389;SDS011;5241;47.830;12.972;2023-12-20T10:47:40;0.63;;;0.60;;
10389;SDS011;5241;47.830;12.972;2023-12-20T10:50:07;0.30;;;0.30;;
10389;SDS011;5241;47.830;12.972;2023-12-20T10:52:33;0.60;;;0.53;;
10389;SDS011;5241;47.830;12.972;2023-12-20T10:55:00;0.53;;;0.53;;
10389;SDS011;5241;47.830;12.972;2023-12-20T10:57:26;0.50;;;0.50;;
10389;SDS011;5241;47.830;12.972;2023-12-20T10:59:53;0.63;;;0.63;;
10389;SDS011;5241;47.830;12.972;2023-12-20T11:02:19;0.30;;;0.30;;
10389;SDS011;5241;47.830;12.972;2023-12-20T11:04:53;0.40;;;0.40;;
10389;SDS011;5241;47.830;12.972;2023-12-20T11:07:32;0.40;;;0.40;;
10389;SDS011;5241;47.830;12.972;2023-12-20T11:10:16;0.33;;;0.33;;
10389;SDS011;5241;47.830;12.972;2023-12-20T11:13:32;0.60;;;0.40;;
10389;SDS011;5241;47.830;12.972;2023-12-20T11:15:50;0.50;;;0.50;;
10389;SDS011;5241;47.830;12.972;2023-12-20T11:18:16;0.60;;;0.53;;
10389;SDS011;5241;47.830;12.972;2023-12-20T11:20:41;0.30;;;0.30;;
10389;SDS011;5241;47.830;12.972;2023-12-20T11:23:08;2.00;;;1.10;;
10389;SDS011;5241;47.830;12.972;2023-12-20T11:25:47;0.60;;;0.60;;
10389;SDS011;5241;47.830;12.972;2023-12-20T11:28:13;0.60;;;0.60;;
10389;SDS011;5241;47.830;12.972;2023-12-20T11:33:08;1.27;;;1.13;;
10389;SDS011;5241;47.830;12.972;2023-12-20T11:35:34;0.70;;;0.60;;
10389;SDS011;5241;47.830;12.972;2023-12-20T11:38:01;0.90;;;0.73;;
10389;SDS011;5241;47.830;12.972;2023-12-20T11:40:27;0.57;;;0.50;;
10389;SDS011;5241;47.830;12.972;2023-12-20T11:42:53;1.00;;;0.50;;
10389;SDS011;5241;47.830;12.972;2023-12-20T11:45:23;1.00;;;0.80;;
10389;SDS011;5241;47.830;12.972;2023-12-20T11:47:50;0.57;;;0.50;;
10389;SDS011;5241;47.830;12.972;2023-12-20T11:50:17;0.30;;;0.23;;
10389;SDS011;5241;47.830;12.972;2023-12-20T11:52:43;0.40;;;0.40;;
10389;SDS011;5241;47.830;12.972;2023-12-20T11:55:08;0.40;;;0.30;;
10389;SDS011;5241;47.830;12.972;2023-12-20T11:57:35;0.50;;;0.50;;
10389;SDS011;5241;47.830;12.972;2023-12-20T12:00:01;0.30;;;0.30;;
10389;SDS011;5241;47.830;12.972;2023-12-20T12:02:28;0.40;;;0.40;;
10389;SDS011;5241;47.830;12.972;2023-12-20T12:04:54;0.40;;;0.40;;
10389;SDS011;5241;47.830;12.972;2023-12-20T12:07:21;0.40;;;0.40;;
10389;SDS011;5241;47.830;12.972;2023-12-20T12:09:47;0.30;;;0.30;;
10389;SDS011;5241;47.830;12.972;2023-12-20T12:12:12;0.50;;;0.50;;
10389;SDS011;5241;47.830;12.972;2023-12-20T12:14:39;0.50;;;0.50;;
10389;SDS011;5241;47.830;12.972;2023-12-20T12:17:09;0.50;;;0.50;;
10389;SDS011;5241;47.830;12.972;2023-12-20T12:19:36;1.30;;;0.30;;
10389;SDS011;5241;47.830;12.972;2023-12-20T12:22:06;0.73;;;0.47;;
10389;SDS011;5241;47.830;12.972;2023-12-20T12:24:35;0.37;;;0.37;;
10389;SDS011;5241;47.830;12.972;2023-12-20T12:27:01;0.53;;;0.50;;
10389;SDS011;5241;47.830;12.972;2023-12-20T12:29:27;0.83;;;0.50;;
10389;SDS011;5241;47.830;12.972;2023-12-20T12:31:52;0.30;;;0.30;;
10389;SDS011;5241;47.830;12.972;2023-12-20T12:34:18;0.40;;;0.40;;
10389;SDS011;5241;47.830;12.972;2023-12-20T12:36:44;0.43;;;0.43;;
10389;SDS011;5241;47.830;12.972;2023-12-20T12:39:14;0.40;;;0.40;;
10389;SDS011;5241;47.830;12.972;2023-12-20T12:41:42;0.80;;;0.80;;
10389;SDS011;5241;47.830;12.972;2023-12-20T12:44:08;12.33;;;6.00;;
10389;SDS011;5241;47.830;12.972;2023-12-20T12:46:34;9.13;;;6.27;;
10389;SDS011;5241;47.830;12.972;2023-12-20T12:49:00;2.83;;;2.20;;
10389;SDS011;5241;47.830;12.972;2023-12-20T12:51:25;1.13;;;0.83;;
10389;SDS011;5241;47.830;12.972;2023-12-20T12:53:51;1.53;;;1.43;;
10389;SDS011;5241;47.830;12.972;2023-12-20T12:56:17;1.87;;;1.13;;
10389;SDS011;5241;47.830;12.972;2023-12-20T12:58:43;0.87;;;0.50;;
10389;SDS011;5241;47.830;12.972;2023-12-20T13:01:09;0.40;;;0.40;;
10389;SDS011;5241;47.830;12.972;2023-12-20T13:03:35;1.20;;;1.10;;
10389;SDS011;5241;47.830;12.972;2023-12-20T13:06:00;0.60;;;0.60;;
10389;SDS011;5241;47.830;12.972;2023-12-20T13:08:26;0.70;;;0.70;;
10389;SDS011;5241;47.830;12.972;2023-12-20T13:10:52;1.37;;;1.20;;
10389;SDS011;5241;47.830;12.972;2023-12-20T13:13:18;0.80;;;0.60;;
10389;SDS011;5241;47.830;12.972;2023-12-20T13:15:43;0.63;;;0.57;;
10389;SDS011;5241;47.830;12.972;2023-12-20T13:18:16;0.90;;;0.70;;
10389;SDS011;5241;47.830;12.972;2023-12-20T13:20:43;1.50;;;1.00;;
10389;SDS011;5241;47.830;12.972;2023-12-20T13:23:09;0.60;;;0.60;;
10389;SDS011;5241;47.830;12.972;2023-12-20T13:25:34;0.83;;;0.80;;
10389;SDS011;5241;47.830;12.972;2023-12-20T13:28:00;0.50;;;0.50;;
10389;SDS011;5241;47.830;12.972;2023-12-20T13:30:26;0.73;;;0.60;;
10389;SDS011;5241;47.830;12.972;2023-12-20T13:32:51;0.63;;;0.63;;
10389;SDS011;5241;47.830;12.972;2023-12-20T13:35:17;0.87;;;0.80;;
10389;SDS011;5241;47.830;12.972;2023-12-20T13:37:42;0.67;;;0.67;;
10389;SDS011;5241;47.830;12.972;2023-12-20T13:40:09;0.70;;;0.67;;
10389;SDS011;5241;47.830;12.972;2023-12-20T13:42:35;0.70;;;0.70;;
10389;SDS011;5241;47.830;12.972;2023-12-20T13:45:01;1.07;;;0.97;;
10389;SDS011;5241;47.830;12.972;2023-12-20T13:47:26;1.60;;;0.70;;
10389;SDS011;5241;47.830;12.972;2023-12-20T13:49:52;0.70;;;0.60;;
10389;SDS011;5241;47.830;12.972;2023-12-20T13:52:17;0.50;;;0.50;;
10389;SDS011;5241;47.830;12.972;2023-12-20T13:54:43;0.40;;;0.40;;
10389;SDS011;5241;47.830;12.972;2023-12-20T13:57:09;0.80;;;0.80;;
10389;SDS011;5241;47.830;12.972;2023-12-20T13:59:34;0.30;;;0.30;;
10389;SDS011;5241;47.830;12.972;2023-12-20T14:02:00;0.30;;;0.30;;
10389;SDS011;5241;47.830;12.972;2023-12-20T14:04:28;0.63;;;0.50;;
10389;SDS011;5241;47.830;12.972;2023-12-20T14:06:54;0.80;;;0.70;;
10389;SDS011;5241;47.830;12.972;2023-12-20T14:09:19;1.17;;;0.60;;
10389;SDS011;5241;47.830;12.972;2023-12-20T14:11:45;0.60;;;0.47;;
10389;SDS011;5241;47.830;12.972;2023-12-20T14:14:10;0.80;;;0.80;;
10389;SDS011;5241;47.830;12.972;2023-12-20T14:16:36;1.37;;;0.70;;
10389;SDS011;5241;47.830;12.972;2023-12-20T14:19:03;1.20;;;0.77;;
10389;SDS011;5241;47.830;12.972;2023-12-20T14:21:28;1.87;;;1.40;;
10389;SDS011;5241;47.830;12.972;2023-12-20T14:23:54;3.33;;;1.77;;
10389;SDS011;5241;47.830;12.972;2023-12-20T14:26:19;3.40;;;2.13;;
10389;SDS011;5241;47.830;12.972;2023-12-20T14:28:45;2.60;;;1.80;;
10389;SDS011;5241;47.830;12.972;2023-12-20T14:31:10;2.70;;;1.80;;
10389;SDS011;5241;47.830;12.972;2023-12-20T14:33:36;3.67;;;2.70;;
10389;SDS011;5241;47.830;12.972;2023-12-20T14:36:04;2.67;;;1.87;;
10389;SDS011;5241;47.830;12.972;2023-12-20T14:38:31;1.67;;;1.23;;
10389;SDS011;5241;47.830;12.972;2023-12-20T14:40:56;1.13;;;0.90;;
10389;SDS011;5241;47.830;12.972;2023-12-20T14:43:22;1.77;;;0.83;;
10389;SDS011;5241;47.830;12.972;2023-12-20T14:45:48;1.80;;;1.53;;